Aérodrome :
LOGIN :

S'inscrire | Disclaimer

   EN    FR    IT 

 










Légende :    VFR   VFR Marginal   IFR   IFR Intensif   IFR Très Intensif
Visi : 
Plafond : 
>= 8 km
>= 3000ft
5 à 8 km
1000 à 3000 ft
1500m à 5 km
500 à 1000 ft
800 à 1500m
200 à 500 ft
< 800m
< 200 ft
Symboles :   Orages  Brouillard  Fortes neiges  Fortes précipitations  Vent > 20 kt
SIGMETs :   Divers  Orages  Givrage  Turbulence  Onde Orograph.  Cendres Volcan.






- Altitude de l'aérodrome : 364 ft


LFAQ - Albert Bray

DERNIER METAR :
  • 241600Z AUTO 19012KT 9999 OVC005 00/00 Q0996 TEMPO 1200 SN BKN002 BKN030CB

METARs EXPIRÉS :
  • 241530Z AUTO 19013KT 9999 OVC005 00/00 Q0997 TEMPO 1200 SN BKN002 BKN030TCU
  • 241500Z AUTO 18011KT 9999 OVC004 00/00 Q0997 TEMPO 1200 SN BKN002 BKN030TCU
  • 241430Z AUTO 17013KT 3300 -SN BR OVC002 00/00 Q0997 BECMG 1200 SN
  • 241400Z AUTO 17013KT 0800 R27/1000D SN FZFG VV/// M00/M00 Q0997 BECMG SN OVC002
  • 241330Z AUTO 18012KT 1900 1300 R27/2300D SN BR BKN007/// BKN014/// OVC022/// ///TCU 00/M00 Q0997 BECMG 1200 SN OVC002

TAF AMD TAF LFAQ
Valide du 24 à 15h jusqu'au 25 à 00h UTC


241539Z 2415/2424 20012KT 9999 OVC006
PROB40
TEMPO 2417/2424 1200 SN BKN002 BKN030CB



MET'MAP, la Météo Aéronautique d'un coup d'oeil ! - Copyright ORBIFLY Décembre 2007 - Disclaimer

ORBIFLY MET'MAP TEAM :

Programmation & Développement : Alexandra Zaïnal
Sur une idée originale de : Baudouin d'Aumeries
Assistance à la programmation : Marc-Olivier Méhu
Soutien technique & logistique : Manuel Goepfert

Contact : metmap@orbifly.com




SOURCES & CREDITS :

   NOAA